sensor_id;sensor_type;location;lat;lon;timestamp;P1;durP1;ratioP1;P2;durP2;ratioP2
70757;SDS011;59316;52.964;7.102;2023-05-27T00:02:08;14.52;;;4.35;;
70757;SDS011;59316;52.964;7.102;2023-05-27T00:07:30;15.75;;;3.90;;
70757;SDS011;59316;52.964;7.102;2023-05-27T00:12:51;15.57;;;3.38;;
70757;SDS011;59316;52.964;7.102;2023-05-27T00:18:13;9.98;;;3.53;;
70757;SDS011;59316;52.964;7.102;2023-05-27T00:23:34;11.05;;;2.97;;
70757;SDS011;59316;52.964;7.102;2023-05-27T00:28:56;9.40;;;3.40;;
70757;SDS011;59316;52.964;7.102;2023-05-27T00:34:17;14.27;;;3.50;;
70757;SDS011;59316;52.964;7.102;2023-05-27T00:39:39;10.85;;;3.67;;
70757;SDS011;59316;52.964;7.102;2023-05-27T00:45:00;13.32;;;3.65;;
70757;SDS011;59316;52.964;7.102;2023-05-27T00:50:22;13.50;;;3.67;;
70757;SDS011;59316;52.964;7.102;2023-05-27T00:55:44;18.98;;;4.60;;
70757;SDS011;59316;52.964;7.102;2023-05-27T01:01:06;10.43;;;3.30;;
70757;SDS011;59316;52.964;7.102;2023-05-27T01:06:30;11.55;;;3.40;;
70757;SDS011;59316;52.964;7.102;2023-05-27T01:12:23;23.42;;;4.60;;
70757;SDS011;59316;52.964;7.102;2023-05-27T01:17:53;12.02;;;3.90;;
70757;SDS011;59316;52.964;7.102;2023-05-27T01:23:17;9.77;;;3.92;;
70757;SDS011;59316;52.964;7.102;2023-05-27T01:28:39;12.70;;;3.22;;
70757;SDS011;59316;52.964;7.102;2023-05-27T01:34:02;12.23;;;3.20;;
70757;SDS011;59316;52.964;7.102;2023-05-27T01:39:30;14.77;;;3.67;;
70757;SDS011;59316;52.964;7.102;2023-05-27T01:44:53;15.27;;;4.53;;
70757;SDS011;59316;52.964;7.102;2023-05-27T01:50:15;13.05;;;3.90;;
70757;SDS011;59316;52.964;7.102;2023-05-27T01:55:36;16.73;;;4.00;;
70757;SDS011;59316;52.964;7.102;2023-05-27T02:00:58;11.65;;;3.60;;
70757;SDS011;59316;52.964;7.102;2023-05-27T02:06:20;14.32;;;3.30;;
70757;SDS011;59316;52.964;7.102;2023-05-27T02:11:41;12.82;;;3.10;;
70757;SDS011;59316;52.964;7.102;2023-05-27T02:17:03;11.38;;;3.75;;
70757;SDS011;59316;52.964;7.102;2023-05-27T02:22:26;12.57;;;4.63;;
70757;SDS011;59316;52.964;7.102;2023-05-27T02:27:48;13.57;;;4.75;;
70757;SDS011;59316;52.964;7.102;2023-05-27T02:33:09;10.60;;;3.88;;
70757;SDS011;59316;52.964;7.102;2023-05-27T02:38:31;17.20;;;5.03;;
70757;SDS011;59316;52.964;7.102;2023-05-27T02:43:53;16.02;;;3.80;;
70757;SDS011;59316;52.964;7.102;2023-05-27T02:49:15;14.00;;;4.30;;
70757;SDS011;59316;52.964;7.102;2023-05-27T02:54:37;12.93;;;4.40;;
70757;SDS011;59316;52.964;7.102;2023-05-27T02:59:58;11.50;;;3.33;;
70757;SDS011;59316;52.964;7.102;2023-05-27T03:05:19;11.10;;;3.58;;
70757;SDS011;59316;52.964;7.102;2023-05-27T03:10:42;14.25;;;4.18;;
70757;SDS011;59316;52.964;7.102;2023-05-27T03:16:04;16.80;;;4.38;;
70757;SDS011;59316;52.964;7.102;2023-05-27T03:21:26;13.77;;;4.32;;
70757;SDS011;59316;52.964;7.102;2023-05-27T03:26:48;11.65;;;3.50;;
70757;SDS011;59316;52.964;7.102;2023-05-27T03:32:09;11.63;;;3.47;;
70757;SDS011;59316;52.964;7.102;2023-05-27T03:37:31;8.32;;;3.28;;
70757;SDS011;59316;52.964;7.102;2023-05-27T03:42:56;8.45;;;3.90;;
70757;SDS011;59316;52.964;7.102;2023-05-27T03:48:18;11.15;;;4.07;;
70757;SDS011;59316;52.964;7.102;2023-05-27T03:53:39;11.93;;;4.40;;
70757;SDS011;59316;52.964;7.102;2023-05-27T03:59:03;12.40;;;3.80;;
70757;SDS011;59316;52.964;7.102;2023-05-27T04:04:24;15.82;;;4.20;;
70757;SDS011;59316;52.964;7.102;2023-05-27T04:09:46;12.70;;;4.25;;
70757;SDS011;59316;52.964;7.102;2023-05-27T04:15:08;9.80;;;3.35;;
70757;SDS011;59316;52.964;7.102;2023-05-27T04:20:37;14.07;;;4.18;;
70757;SDS011;59316;52.964;7.102;2023-05-27T04:26:00;16.92;;;4.00;;
70757;SDS011;59316;52.964;7.102;2023-05-27T04:31:26;14.30;;;4.68;;
70757;SDS011;59316;52.964;7.102;2023-05-27T04:36:58;14.85;;;4.97;;
70757;SDS011;59316;52.964;7.102;2023-05-27T04:42:19;24.98;;;5.93;;
70757;SDS011;59316;52.964;7.102;2023-05-27T04:47:44;25.08;;;7.18;;
70757;SDS011;59316;52.964;7.102;2023-05-27T04:53:06;24.15;;;6.22;;
70757;SDS011;59316;52.964;7.102;2023-05-27T04:58:28;32.50;;;6.30;;
70757;SDS011;59316;52.964;7.102;2023-05-27T05:03:52;20.93;;;5.93;;
70757;SDS011;59316;52.964;7.102;2023-05-27T05:09:14;24.23;;;5.80;;
70757;SDS011;59316;52.964;7.102;2023-05-27T05:14:36;22.67;;;5.45;;
70757;SDS011;59316;52.964;7.102;2023-05-27T05:19:58;17.70;;;4.93;;
70757;SDS011;59316;52.964;7.102;2023-05-27T05:25:20;15.45;;;4.15;;
70757;SDS011;59316;52.964;7.102;2023-05-27T05:30:45;11.93;;;4.28;;
70757;SDS011;59316;52.964;7.102;2023-05-27T05:36:09;20.40;;;5.13;;
70757;SDS011;59316;52.964;7.102;2023-05-27T05:41:46;15.93;;;3.85;;
70757;SDS011;59316;52.964;7.102;2023-05-27T05:47:10;10.37;;;3.43;;
70757;SDS011;59316;52.964;7.102;2023-05-27T05:52:32;13.70;;;4.63;;
70757;SDS011;59316;52.964;7.102;2023-05-27T05:57:53;15.25;;;3.58;;
70757;SDS011;59316;52.964;7.102;2023-05-27T06:03:15;13.27;;;3.70;;
70757;SDS011;59316;52.964;7.102;2023-05-27T06:08:40;14.07;;;3.50;;
70757;SDS011;59316;52.964;7.102;2023-05-27T06:14:07;13.75;;;3.67;;
70757;SDS011;59316;52.964;7.102;2023-05-27T06:19:29;14.55;;;3.53;;
70757;SDS011;59316;52.964;7.102;2023-05-27T06:24:50;11.13;;;2.88;;
70757;SDS011;59316;52.964;7.102;2023-05-27T06:30:24;12.77;;;3.30;;
70757;SDS011;59316;52.964;7.102;2023-05-27T06:35:47;11.73;;;3.47;;
70757;SDS011;59316;52.964;7.102;2023-05-27T06:41:09;10.77;;;2.97;;
70757;SDS011;59316;52.964;7.102;2023-05-27T06:46:35;15.48;;;3.10;;
70757;SDS011;59316;52.964;7.102;2023-05-27T06:52:00;11.23;;;2.80;;
70757;SDS011;59316;52.964;7.102;2023-05-27T06:57:24;14.23;;;4.20;;
70757;SDS011;59316;52.964;7.102;2023-05-27T07:02:52;14.07;;;3.17;;
70757;SDS011;59316;52.964;7.102;2023-05-27T07:08:13;10.10;;;3.05;;
70757;SDS011;59316;52.964;7.102;2023-05-27T15:31:56;16.02;;;4.00;;
70757;SDS011;59316;52.964;7.102;2023-05-27T15:37:17;8.95;;;3.40;;
70757;SDS011;59316;52.964;7.102;2023-05-27T15:42:38;10.23;;;3.63;;
70757;SDS011;59316;52.964;7.102;2023-05-27T15:47:59;11.15;;;3.50;;
70757;SDS011;59316;52.964;7.102;2023-05-27T15:53:20;10.93;;;4.03;;
70757;SDS011;59316;52.964;7.102;2023-05-27T15:58:41;7.45;;;3.33;;
70757;SDS011;59316;52.964;7.102;2023-05-27T16:04:03;12.15;;;3.70;;
70757;SDS011;59316;52.964;7.102;2023-05-27T16:09:24;10.05;;;3.28;;
70757;SDS011;59316;52.964;7.102;2023-05-27T16:14:46;9.38;;;3.70;;
70757;SDS011;59316;52.964;7.102;2023-05-27T16:20:07;8.80;;;3.10;;
70757;SDS011;59316;52.964;7.102;2023-05-27T16:25:28;10.68;;;3.63;;
70757;SDS011;59316;52.964;7.102;2023-05-27T16:30:49;8.38;;;3.70;;
70757;SDS011;59316;52.964;7.102;2023-05-27T16:36:11;10.75;;;4.07;;
70757;SDS011;59316;52.964;7.102;2023-05-27T16:41:33;12.65;;;3.53;;
70757;SDS011;59316;52.964;7.102;2023-05-27T16:46:54;9.07;;;3.85;;
70757;SDS011;59316;52.964;7.102;2023-05-27T16:52:15;10.73;;;3.92;;
70757;SDS011;59316;52.964;7.102;2023-05-27T16:57:36;12.85;;;3.90;;
70757;SDS011;59316;52.964;7.102;2023-05-27T17:02:57;10.13;;;3.20;;
70757;SDS011;59316;52.964;7.102;2023-05-27T17:08:18;10.88;;;3.42;;
70757;SDS011;59316;52.964;7.102;2023-05-27T17:13:40;9.88;;;3.50;;
70757;SDS011;59316;52.964;7.102;2023-05-27T17:19:01;9.75;;;3.22;;
70757;SDS011;59316;52.964;7.102;2023-05-27T17:24:22;11.25;;;4.50;;
70757;SDS011;59316;52.964;7.102;2023-05-27T17:29:43;8.02;;;3.63;;
70757;SDS011;59316;52.964;7.102;2023-05-27T17:35:04;6.82;;;3.00;;
70757;SDS011;59316;52.964;7.102;2023-05-27T17:40:25;10.82;;;3.50;;
70757;SDS011;59316;52.964;7.102;2023-05-27T17:45:46;9.63;;;3.92;;
70757;SDS011;59316;52.964;7.102;2023-05-27T17:51:07;7.78;;;3.17;;
70757;SDS011;59316;52.964;7.102;2023-05-27T17:56:28;10.23;;;3.03;;
70757;SDS011;59316;52.964;7.102;2023-05-27T18:01:49;9.63;;;3.47;;
70757;SDS011;59316;52.964;7.102;2023-05-27T18:07:10;7.85;;;3.55;;
70757;SDS011;59316;52.964;7.102;2023-05-27T18:12:31;9.55;;;4.20;;
70757;SDS011;59316;52.964;7.102;2023-05-27T18:17:52;15.02;;;4.75;;
70757;SDS011;59316;52.964;7.102;2023-05-27T18:23:13;10.90;;;3.75;;
70757;SDS011;59316;52.964;7.102;2023-05-27T18:28:34;13.85;;;3.80;;
70757;SDS011;59316;52.964;7.102;2023-05-27T18:33:55;12.85;;;4.00;;
70757;SDS011;59316;52.964;7.102;2023-05-27T18:39:17;15.85;;;3.65;;
70757;SDS011;59316;52.964;7.102;2023-05-27T18:44:38;15.57;;;4.50;;
70757;SDS011;59316;52.964;7.102;2023-05-27T18:49:59;11.95;;;4.38;;
70757;SDS011;59316;52.964;7.102;2023-05-27T18:55:20;12.65;;;4.20;;
70757;SDS011;59316;52.964;7.102;2023-05-27T19:00:41;10.00;;;4.15;;
70757;SDS011;59316;52.964;7.102;2023-05-27T19:06:02;14.40;;;4.43;;
70757;SDS011;59316;52.964;7.102;2023-05-27T19:11:24;14.90;;;4.03;;
70757;SDS011;59316;52.964;7.102;2023-05-27T19:16:45;16.33;;;4.47;;
70757;SDS011;59316;52.964;7.102;2023-05-27T19:22:06;17.02;;;4.53;;
70757;SDS011;59316;52.964;7.102;2023-05-27T19:27:27;16.85;;;4.65;;
70757;SDS011;59316;52.964;7.102;2023-05-27T19:32:48;17.02;;;4.85;;
70757;SDS011;59316;52.964;7.102;2023-05-27T19:38:09;15.52;;;4.80;;
70757;SDS011;59316;52.964;7.102;2023-05-27T19:43:31;15.60;;;4.90;;
70757;SDS011;59316;52.964;7.102;2023-05-27T19:48:52;18.52;;;5.18;;
70757;SDS011;59316;52.964;7.102;2023-05-27T19:54:14;17.73;;;5.85;;
70757;SDS011;59316;52.964;7.102;2023-05-27T19:59:36;18.00;;;5.35;;
70757;SDS011;59316;52.964;7.102;2023-05-27T20:04:58;15.30;;;5.00;;
70757;SDS011;59316;52.964;7.102;2023-05-27T20:10:20;23.35;;;5.30;;
70757;SDS011;59316;52.964;7.102;2023-05-27T20:15:41;18.52;;;6.15;;
70757;SDS011;59316;52.964;7.102;2023-05-27T20:21:03;16.50;;;5.18;;
70757;SDS011;59316;52.964;7.102;2023-05-27T20:26:24;18.80;;;5.03;;
70757;SDS011;59316;52.964;7.102;2023-05-27T20:31:46;17.92;;;5.13;;
70757;SDS011;59316;52.964;7.102;2023-05-27T20:37:07;12.45;;;4.65;;
70757;SDS011;59316;52.964;7.102;2023-05-27T20:42:29;13.35;;;4.78;;
70757;SDS011;59316;52.964;7.102;2023-05-27T20:47:50;13.73;;;4.50;;
70757;SDS011;59316;52.964;7.102;2023-05-27T20:53:12;15.27;;;4.70;;
70757;SDS011;59316;52.964;7.102;2023-05-27T20:58:33;18.65;;;4.65;;
70757;SDS011;59316;52.964;7.102;2023-05-27T21:03:55;18.88;;;4.82;;
70757;SDS011;59316;52.964;7.102;2023-05-27T21:09:18;24.53;;;5.47;;
70757;SDS011;59316;52.964;7.102;2023-05-27T21:14:39;17.48;;;5.72;;
70757;SDS011;59316;52.964;7.102;2023-05-27T21:20:00;18.63;;;5.93;;
70757;SDS011;59316;52.964;7.102;2023-05-27T21:25:22;22.42;;;6.95;;
70757;SDS011;59316;52.964;7.102;2023-05-27T21:30:44;15.45;;;7.00;;
70757;SDS011;59316;52.964;7.102;2023-05-27T21:36:05;19.40;;;6.75;;
70757;SDS011;59316;52.964;7.102;2023-05-27T21:41:27;21.80;;;7.80;;
70757;SDS011;59316;52.964;7.102;2023-05-27T21:46:49;18.70;;;6.28;;
70757;SDS011;59316;52.964;7.102;2023-05-27T21:52:10;21.23;;;6.88;;
70757;SDS011;59316;52.964;7.102;2023-05-27T21:57:32;23.63;;;6.28;;
70757;SDS011;59316;52.964;7.102;2023-05-27T22:02:53;20.58;;;7.15;;
70757;SDS011;59316;52.964;7.102;2023-05-27T22:08:15;22.27;;;7.05;;
70757;SDS011;59316;52.964;7.102;2023-05-27T22:13:37;19.17;;;6.72;;
70757;SDS011;59316;52.964;7.102;2023-05-27T22:18:58;17.75;;;6.25;;
70757;SDS011;59316;52.964;7.102;2023-05-27T22:24:20;14.57;;;5.80;;
70757;SDS011;59316;52.964;7.102;2023-05-27T22:29:42;18.55;;;6.43;;
70757;SDS011;59316;52.964;7.102;2023-05-27T22:35:03;20.95;;;7.28;;
70757;SDS011;59316;52.964;7.102;2023-05-27T22:40:26;19.58;;;6.40;;
70757;SDS011;59316;52.964;7.102;2023-05-27T22:45:47;17.25;;;7.47;;
70757;SDS011;59316;52.964;7.102;2023-05-27T22:51:09;16.83;;;6.60;;
70757;SDS011;59316;52.964;7.102;2023-05-27T22:56:30;27.08;;;7.57;;
70757;SDS011;59316;52.964;7.102;2023-05-27T23:01:52;24.67;;;8.27;;
70757;SDS011;59316;52.964;7.102;2023-05-27T23:07:14;21.20;;;7.35;;
70757;SDS011;59316;52.964;7.102;2023-05-27T23:12:35;22.10;;;7.38;;
70757;SDS011;59316;52.964;7.102;2023-05-27T23:17:57;28.17;;;8.95;;
70757;SDS011;59316;52.964;7.102;2023-05-27T23:23:18;24.85;;;7.43;;
70757;SDS011;59316;52.964;7.102;2023-05-27T23:28:40;32.75;;;8.30;;
70757;SDS011;59316;52.964;7.102;2023-05-27T23:34:01;20.45;;;6.93;;
70757;SDS011;59316;52.964;7.102;2023-05-27T23:39:22;23.85;;;7.60;;
70757;SDS011;59316;52.964;7.102;2023-05-27T23:44:44;26.02;;;8.48;;
70757;SDS011;59316;52.964;7.102;2023-05-27T23:50:05;26.95;;;8.10;;
70757;SDS011;59316;52.964;7.102;2023-05-27T23:55:27;22.85;;;8.02;;
